createdAt,value
2018-09-09T00:00:39.829Z,16.00
2018-09-09T00:02:33.159Z,15.98
2018-09-09T00:03:33.107Z,15.97
2018-09-09T00:05:27.050Z,15.90
2018-09-09T00:06:26.383Z,15.90
2018-09-09T00:08:19.689Z,15.82
2018-09-09T00:09:19.674Z,15.80
2018-09-09T00:11:12.970Z,15.84
2018-09-09T00:12:12.929Z,15.70
2018-09-09T00:14:06.218Z,15.70
2018-09-09T00:15:06.183Z,15.77
2018-09-09T00:16:59.035Z,15.68
2018-09-09T00:17:58.990Z,15.67
2018-09-09T00:19:52.264Z,15.70
2018-09-09T00:20:52.229Z,15.61
2018-09-09T00:22:45.573Z,15.67
2018-09-09T00:23:45.496Z,15.67
2018-09-09T00:25:38.801Z,15.62
2018-09-09T00:26:38.765Z,15.67
2018-09-09T00:28:32.085Z,15.67
2018-09-09T00:29:32.039Z,15.64
2018-09-09T00:31:24.856Z,15.58
2018-09-09T00:32:24.806Z,15.52
2018-09-09T00:34:17.619Z,15.57
2018-09-09T00:35:17.586Z,15.59
2018-09-09T00:37:10.913Z,15.54
2018-09-09T00:38:10.857Z,15.49
2018-09-09T00:40:04.165Z,15.51
2018-09-09T00:41:04.126Z,15.46
2018-09-09T00:42:57.455Z,15.43
2018-09-09T00:43:57.399Z,15.44
2018-09-09T00:45:50.218Z,15.43
2018-09-09T00:46:50.174Z,15.43
2018-09-09T00:48:43.500Z,15.43
2018-09-09T00:49:43.450Z,15.39
2018-09-09T00:51:36.756Z,15.42
2018-09-09T00:52:36.732Z,15.37
2018-09-09T00:54:30.037Z,15.36
2018-09-09T00:55:29.982Z,15.31
2018-09-09T00:57:23.304Z,15.28
2018-09-09T00:58:23.267Z,15.29
2018-09-09T01:00:16.575Z,15.33
2018-09-09T01:01:16.532Z,15.27
2018-09-09T01:03:09.350Z,15.28
2018-09-09T01:04:09.300Z,15.22
2018-09-09T01:06:03.120Z,15.33
2018-09-09T01:07:03.071Z,15.19
2018-09-09T01:08:56.399Z,15.27
2018-09-09T01:09:56.339Z,15.22
2018-09-09T01:11:49.651Z,15.24
2018-09-09T01:12:49.624Z,15.25
2018-09-09T01:14:42.436Z,15.24
2018-09-09T01:15:42.391Z,15.21
2018-09-09T01:17:35.207Z,15.19
2018-09-09T01:18:35.172Z,15.14
2018-09-09T01:20:28.006Z,15.19
2018-09-09T01:21:27.950Z,15.10
2018-09-09T01:23:20.755Z,15.14
2018-09-09T01:24:20.712Z,15.11
2018-09-09T01:26:13.541Z,15.17
2018-09-09T01:27:13.493Z,15.15
2018-09-09T01:29:06.331Z,15.06
2018-09-09T01:30:06.266Z,15.11
2018-09-09T01:31:59.578Z,15.07
2018-09-09T01:32:59.533Z,15.06
2018-09-09T01:34:52.856Z,15.07
2018-09-09T01:35:52.818Z,15.17
2018-09-09T01:37:46.114Z,15.10
2018-09-09T01:38:46.081Z,15.03
2018-09-09T01:40:39.403Z,15.19
2018-09-09T01:41:39.357Z,15.17
2018-09-09T01:43:32.651Z,15.17
2018-09-09T01:44:32.622Z,15.14
2018-09-09T01:46:25.438Z,15.17
2018-09-09T01:47:25.389Z,15.18
2018-09-09T01:49:18.199Z,15.15
2018-09-09T01:50:18.163Z,15.07
2018-09-09T01:52:11.489Z,15.15
2018-09-09T01:53:11.444Z,15.17
2018-09-09T01:55:04.759Z,15.14
2018-09-09T01:56:04.727Z,15.14
2018-09-09T01:57:58.034Z,15.21
2018-09-09T01:58:58.002Z,15.06
2018-09-09T02:00:51.300Z,15.11
2018-09-09T02:01:51.257Z,15.10
2018-09-09T02:03:44.573Z,15.17
2018-09-09T02:04:44.524Z,15.10
2018-09-09T02:06:37.349Z,15.14
2018-09-09T02:07:37.291Z,15.17
2018-09-09T02:09:30.098Z,15.10
2018-09-09T02:10:30.068Z,15.14
2018-09-09T02:12:23.385Z,15.15
2018-09-09T02:13:23.345Z,15.11
2018-09-09T02:15:16.149Z,15.22
2018-09-09T02:16:16.110Z,15.11
2018-09-09T02:18:09.433Z,15.27
2018-09-09T02:19:09.385Z,15.15
2018-09-09T02:21:02.190Z,15.21
2018-09-09T02:22:02.153Z,15.09
2018-09-09T02:23:54.979Z,15.18
2018-09-09T02:24:54.934Z,15.10
2018-09-09T02:26:48.238Z,15.11
2018-09-09T02:27:48.189Z,15.15
2018-09-09T02:29:41.519Z,15.21
2018-09-09T02:30:41.468Z,15.22
2018-09-09T02:32:34.284Z,15.06
2018-09-09T02:33:34.282Z,15.04
2018-09-09T02:35:27.574Z,15.14
2018-09-09T02:36:27.524Z,15.14
2018-09-09T02:38:20.831Z,15.06
2018-09-09T02:39:20.783Z,15.10
2018-09-09T02:41:13.594Z,15.07
2018-09-09T02:42:13.550Z,15.06
2018-09-09T02:44:06.864Z,15.07
2018-09-09T02:45:06.824Z,15.10
2018-09-09T02:47:00.134Z,15.15
2018-09-09T02:48:00.096Z,15.14
2018-09-09T02:49:53.431Z,15.11
2018-09-09T02:50:53.375Z,15.02
2018-09-09T02:52:46.696Z,15.04
2018-09-09T02:53:46.642Z,15.06
2018-09-09T02:55:39.470Z,15.00
2018-09-09T02:56:39.416Z,15.04
2018-09-09T02:58:32.755Z,15.10
2018-09-09T02:59:32.711Z,14.99
2018-09-09T03:01:25.520Z,15.07
2018-09-09T03:02:25.485Z,15.04
2018-09-09T03:04:18.786Z,15.06
2018-09-09T03:05:18.746Z,15.03
2018-09-09T03:07:12.075Z,15.07
2018-09-09T03:08:12.035Z,15.00
2018-09-09T03:10:04.853Z,15.07
2018-09-09T03:11:04.816Z,15.10
2018-09-09T03:12:58.129Z,15.11
2018-09-09T03:13:58.085Z,15.06
2018-09-09T03:15:51.400Z,15.06
2018-09-09T03:16:51.377Z,15.07
2018-09-09T03:18:44.660Z,15.14
2018-09-09T03:19:44.625Z,15.10
2018-09-09T03:21:37.960Z,15.06
2018-09-09T03:22:37.905Z,15.06
2018-09-09T03:24:30.724Z,15.09
2018-09-09T03:25:30.680Z,15.11
2018-09-09T03:27:23.979Z,15.09
2018-09-09T03:28:23.964Z,15.07
2018-09-09T03:30:16.758Z,15.11
2018-09-09T03:31:16.715Z,15.11
2018-09-09T03:33:10.045Z,15.11
2018-09-09T03:34:09.995Z,15.18
2018-09-09T03:36:03.434Z,15.14
2018-09-09T03:37:03.270Z,15.09
2018-09-09T03:38:56.595Z,15.14
2018-09-09T03:39:56.542Z,15.14
2018-09-09T03:41:49.888Z,15.19
2018-09-09T03:42:49.837Z,15.19
2018-09-09T03:44:43.133Z,15.10
2018-09-09T03:45:43.103Z,15.14
2018-09-09T03:47:36.422Z,15.17
2018-09-09T03:48:36.362Z,15.14
2018-09-09T03:50:29.684Z,15.11
2018-09-09T03:51:29.636Z,15.07
2018-09-09T03:53:22.954Z,15.18
2018-09-09T03:54:22.917Z,15.15
2018-09-09T03:56:16.259Z,15.07
2018-09-09T03:57:16.193Z,15.11
2018-09-09T03:59:09.499Z,15.10
2018-09-09T04:00:09.465Z,15.07
2018-09-09T04:02:02.773Z,15.14
2018-09-09T04:03:02.734Z,14.97
2018-09-09T04:04:55.559Z,15.09
2018-09-09T04:05:55.512Z,15.02
2018-09-09T04:07:48.328Z,15.11
2018-09-09T04:08:48.326Z,15.00
2018-09-09T04:10:41.585Z,15.06
2018-09-09T04:11:41.579Z,15.09
2018-09-09T04:13:34.856Z,15.21
2018-09-09T04:14:34.848Z,15.17
2018-09-09T04:16:28.240Z,15.07
2018-09-09T04:17:28.149Z,15.10
2018-09-09T04:19:21.459Z,15.09
2018-09-09T04:20:21.415Z,15.09
2018-09-09T04:22:14.753Z,15.06
2018-09-09T04:23:14.703Z,15.11
2018-09-09T04:25:08.008Z,15.03
2018-09-09T04:26:07.977Z,15.06
2018-09-09T04:28:01.362Z,15.09
2018-09-09T04:29:01.253Z,14.97
2018-09-09T04:30:55.457Z,15.10
2018-09-09T04:31:55.428Z,15.10
2018-09-09T04:33:48.685Z,15.11
2018-09-09T04:34:48.636Z,15.04
2018-09-09T04:36:41.434Z,15.09
2018-09-09T04:37:41.401Z,15.07
2018-09-09T04:39:34.714Z,15.14
2018-09-09T04:40:34.669Z,14.99
2018-09-09T04:42:27.989Z,15.07
2018-09-09T04:43:27.948Z,15.07
2018-09-09T04:45:20.766Z,15.00
2018-09-09T04:46:20.741Z,15.04
2018-09-09T04:48:13.562Z,15.07
2018-09-09T04:49:13.509Z,15.03
2018-09-09T04:51:06.814Z,15.03
2018-09-09T04:52:06.789Z,14.97
2018-09-09T04:53:59.611Z,14.96
2018-09-09T04:54:59.549Z,15.02
2018-09-09T04:56:52.870Z,15.04
2018-09-09T04:57:52.830Z,15.06
2018-09-09T04:59:46.141Z,15.04
2018-09-09T05:00:46.082Z,15.04
2018-09-09T05:02:38.888Z,15.10
2018-09-09T05:03:38.865Z,15.04
2018-09-09T05:05:31.685Z,15.03
2018-09-09T05:06:31.632Z,15.03
2018-09-09T05:08:24.944Z,15.03
2018-09-09T05:09:24.901Z,15.00
2018-09-09T05:11:18.206Z,15.06
2018-09-09T05:12:18.174Z,15.03
2018-09-09T05:14:10.984Z,15.07
2018-09-09T05:15:10.937Z,15.02
2018-09-09T05:17:04.226Z,14.97
2018-09-09T05:18:04.192Z,15.09
2018-09-09T05:19:57.512Z,15.10
2018-09-09T05:20:57.470Z,15.10
2018-09-09T05:22:50.768Z,15.10
2018-09-09T05:23:50.730Z,15.18
2018-09-09T05:25:44.048Z,15.21
2018-09-09T05:26:44.004Z,15.15
2018-09-09T05:28:37.300Z,15.19
2018-09-09T05:29:37.266Z,15.24
2018-09-09T05:31:30.087Z,15.21
2018-09-09T05:32:30.038Z,15.22
2018-09-09T05:34:23.397Z,15.27
2018-09-09T05:35:23.317Z,15.27
2018-09-09T05:37:16.141Z,15.31
2018-09-09T05:38:16.101Z,15.18
2018-09-09T05:40:08.930Z,15.27
2018-09-09T05:41:08.871Z,15.28
2018-09-09T05:43:02.173Z,15.27
2018-09-09T05:44:02.136Z,15.33
2018-09-09T05:45:55.472Z,15.25
2018-09-09T05:46:55.412Z,15.31
2018-09-09T05:48:48.223Z,15.40
2018-09-09T05:49:48.182Z,15.40
2018-09-09T05:51:41.516Z,15.42
2018-09-09T05:52:41.461Z,15.42
2018-09-09T05:54:34.761Z,15.42
2018-09-09T05:55:34.723Z,15.39
2018-09-09T05:57:27.580Z,15.51
2018-09-09T05:58:27.512Z,15.44
2018-09-09T06:00:21.171Z,15.52
2018-09-09T06:01:21.133Z,15.58
2018-09-09T06:03:14.457Z,15.61
2018-09-09T06:04:14.412Z,15.61
2018-09-09T06:06:07.722Z,15.55
2018-09-09T06:07:07.688Z,15.57
2018-09-09T06:09:00.999Z,15.62
2018-09-09T06:10:00.950Z,15.67
2018-09-09T06:11:54.292Z,15.65
2018-09-09T06:12:54.223Z,15.61
2018-09-09T06:14:47.522Z,15.73
2018-09-09T06:15:47.493Z,15.73
2018-09-09T06:17:40.807Z,15.79
2018-09-09T06:18:40.757Z,15.80
2018-09-09T06:20:34.084Z,15.86
2018-09-09T06:21:34.043Z,15.91
2018-09-09T06:23:26.864Z,15.90
2018-09-09T06:24:26.815Z,15.95
2018-09-09T06:26:20.134Z,16.04
2018-09-09T06:27:20.100Z,16.01
2018-09-09T06:29:13.418Z,15.98
2018-09-09T06:30:13.389Z,16.08
2018-09-09T06:32:06.687Z,16.13
2018-09-09T06:33:06.648Z,16.12
2018-09-09T06:34:59.964Z,16.20
2018-09-09T06:35:59.923Z,16.13
2018-09-09T06:37:53.235Z,16.28
2018-09-09T06:38:53.275Z,16.26
2018-09-09T06:40:46.487Z,16.28
2018-09-09T06:41:46.473Z,16.29
2018-09-09T06:43:39.768Z,16.32
2018-09-09T06:44:39.723Z,16.35
2018-09-09T06:46:33.031Z,16.43
2018-09-09T06:47:32.990Z,16.46
2018-09-09T06:49:26.306Z,16.56
2018-09-09T06:50:26.265Z,16.57
2018-09-09T06:52:19.572Z,16.66
2018-09-09T06:53:19.544Z,16.66
2018-09-09T06:55:12.373Z,16.78
2018-09-09T06:56:12.328Z,16.68
2018-09-09T06:58:05.625Z,16.89
2018-09-09T06:59:05.595Z,16.86
2018-09-09T07:00:58.914Z,16.91
2018-09-09T07:01:58.863Z,17.01
2018-09-09T07:03:52.169Z,17.04
2018-09-09T07:04:52.131Z,17.04
2018-09-09T07:06:44.971Z,17.08
2018-09-09T07:07:44.912Z,17.20
2018-09-09T07:09:38.270Z,17.29
2018-09-09T07:10:38.230Z,17.34
2018-09-09T07:12:31.529Z,17.38
2018-09-09T07:13:31.487Z,17.36
2018-09-09T07:15:24.812Z,17.51
2018-09-09T07:16:24.771Z,17.45
2018-09-09T07:18:17.973Z,17.59
2018-09-09T07:19:17.540Z,17.49
2018-09-09T07:21:10.384Z,17.64
2018-09-09T07:22:10.316Z,17.59
2018-09-09T07:24:03.631Z,17.68
2018-09-09T07:25:03.591Z,17.56
2018-09-09T07:26:56.986Z,17.59
2018-09-09T07:27:56.940Z,17.65
2018-09-09T07:29:49.782Z,17.74
2018-09-09T07:30:49.715Z,17.72
2018-09-09T07:32:43.017Z,17.83
2018-09-09T07:33:42.991Z,17.83
2018-09-09T07:35:35.811Z,17.80
2018-09-09T07:36:35.771Z,17.80
2018-09-09T07:38:29.107Z,17.83
2018-09-09T07:39:29.061Z,17.95
2018-09-09T07:41:22.387Z,18.03
2018-09-09T07:42:22.328Z,17.98
2018-09-09T07:44:15.642Z,18.15
2018-09-09T07:45:15.602Z,18.08
2018-09-09T07:47:08.935Z,18.10
2018-09-09T07:48:08.878Z,18.19
2018-09-09T07:50:02.187Z,18.22
2018-09-09T07:51:02.153Z,18.33
2018-09-09T07:52:55.473Z,18.40
2018-09-09T07:53:55.424Z,18.53
2018-09-09T07:55:48.750Z,18.53
2018-09-09T07:56:48.718Z,18.59
2018-09-09T07:58:42.033Z,18.77
2018-09-09T07:59:41.997Z,18.75
2018-09-09T08:01:34.833Z,18.95
2018-09-09T08:02:34.773Z,18.96
2018-09-09T08:04:28.095Z,19.09
2018-09-09T08:05:28.041Z,19.16
2018-09-09T08:07:21.377Z,19.22
2018-09-09T08:08:21.317Z,19.29
2018-09-09T08:10:14.626Z,19.26
2018-09-09T08:11:14.597Z,19.31
2018-09-09T08:13:07.927Z,19.45
2018-09-09T08:14:07.879Z,19.49
2018-09-09T08:16:01.206Z,19.54
2018-09-09T08:17:01.168Z,19.64
2018-09-09T08:18:54.479Z,19.76
2018-09-09T08:19:54.433Z,19.82
2018-09-09T08:21:47.744Z,19.99
2018-09-09T08:22:47.705Z,20.02
2018-09-09T08:24:41.029Z,20.10
2018-09-09T08:25:40.978Z,20.21
2018-09-09T08:27:34.285Z,20.28
2018-09-09T08:28:34.254Z,20.28
2018-09-09T08:30:27.085Z,20.41
2018-09-09T08:31:27.048Z,20.44
2018-09-09T08:33:20.350Z,20.62
2018-09-09T08:34:20.327Z,20.58
2018-09-09T08:36:13.640Z,20.60
2018-09-09T08:37:13.597Z,20.65
2018-09-09T08:39:06.930Z,20.81
2018-09-09T08:40:06.894Z,20.75
2018-09-09T08:41:59.708Z,20.90
2018-09-09T08:42:59.684Z,20.88
2018-09-09T08:44:53.017Z,20.90
2018-09-09T08:45:52.967Z,21.00
2018-09-09T08:47:45.779Z,21.11
2018-09-09T08:48:45.745Z,21.05
2018-09-09T08:50:39.066Z,21.21
2018-09-09T08:51:39.076Z,21.37
2018-09-09T08:53:32.334Z,21.39
2018-09-09T08:54:32.304Z,21.57
2018-09-09T08:56:25.631Z,21.70
2018-09-09T08:57:25.632Z,21.83
2018-09-09T08:59:18.881Z,21.67
2018-09-09T09:00:18.864Z,21.62
2018-09-09T09:02:11.694Z,21.82
2018-09-09T09:03:11.640Z,21.88
2018-09-09T09:05:04.997Z,21.88
2018-09-09T09:06:04.940Z,21.99
2018-09-09T09:07:58.440Z,21.99
2018-09-09T09:08:58.222Z,22.04
2018-09-09T09:10:51.567Z,22.06
2018-09-09T09:11:51.524Z,22.04
2018-09-09T09:13:44.851Z,22.23
2018-09-09T09:14:44.849Z,22.14
2018-09-09T09:16:37.650Z,22.07
2018-09-09T09:17:37.601Z,22.02
2018-09-09T09:19:30.958Z,21.99
2018-09-09T09:20:30.930Z,22.00
2018-09-09T09:22:24.239Z,22.08
2018-09-09T09:23:24.202Z,22.06
2018-09-09T09:25:17.025Z,22.17
2018-09-09T09:26:16.994Z,22.23
2018-09-09T09:28:10.337Z,22.44
2018-09-09T09:29:10.293Z,22.38
2018-09-09T09:31:03.601Z,22.53
2018-09-09T09:32:03.576Z,22.65
2018-09-09T09:33:56.876Z,22.54
2018-09-09T09:34:56.849Z,22.41
2018-09-09T09:36:50.183Z,22.38
2018-09-09T09:37:50.136Z,22.35
2018-09-09T09:39:42.956Z,22.28
2018-09-09T09:40:42.916Z,22.43
2018-09-09T09:42:36.261Z,22.39
2018-09-09T09:43:36.217Z,22.39
2018-09-09T09:45:29.526Z,22.51
2018-09-09T09:46:29.538Z,22.55
2018-09-09T09:48:22.872Z,22.47
2018-09-09T09:49:22.817Z,22.51
2018-09-09T09:51:16.137Z,22.83
2018-09-09T09:52:16.112Z,23.10
2018-09-09T09:54:09.431Z,24.01
2018-09-09T09:55:09.427Z,24.61
2018-09-09T09:57:02.808Z,25.36
2018-09-09T09:58:02.733Z,25.85
2018-09-09T09:59:56.161Z,26.38
2018-09-09T10:00:56.022Z,26.85
2018-09-09T10:02:49.347Z,26.83
2018-09-09T10:03:49.323Z,27.05
2018-09-09T10:05:42.646Z,27.54
2018-09-09T10:06:42.607Z,27.77
2018-09-09T10:08:35.949Z,28.44
2018-09-09T10:09:35.908Z,28.01
2018-09-09T10:11:29.233Z,28.19
2018-09-09T10:12:29.203Z,28.10
2018-09-09T10:14:22.553Z,28.38
2018-09-09T10:15:22.647Z,28.59
2018-09-09T10:17:15.868Z,28.41
2018-09-09T10:18:15.819Z,28.44
2018-09-09T10:20:09.138Z,28.35
2018-09-09T10:21:09.123Z,28.37
2018-09-09T10:23:01.964Z,28.76
2018-09-09T10:24:01.938Z,28.82
2018-09-09T10:25:55.264Z,29.17
2018-09-09T10:26:55.234Z,29.14
2018-09-09T10:28:48.582Z,29.29
2018-09-09T10:29:48.544Z,29.14
2018-09-09T10:31:41.870Z,28.88
2018-09-09T10:32:41.839Z,28.79
2018-09-09T10:34:35.223Z,28.52
2018-09-09T10:35:35.145Z,28.64
2018-09-09T10:37:28.477Z,28.78
2018-09-09T10:38:28.462Z,28.62
2018-09-09T10:40:21.790Z,28.79
2018-09-09T10:41:21.753Z,28.85
2018-09-09T10:43:15.085Z,29.24
2018-09-09T10:44:15.066Z,29.36
2018-09-09T10:46:08.464Z,29.57
2018-09-09T10:47:08.397Z,29.56
2018-09-09T10:49:01.709Z,29.38
2018-09-09T10:50:01.671Z,28.85
2018-09-09T10:51:55.006Z,29.41
2018-09-09T10:52:55.094Z,29.60
2018-09-09T10:54:48.344Z,29.49
2018-09-09T10:55:48.299Z,29.44
2018-09-09T10:57:41.761Z,28.76
2018-09-09T10:58:41.750Z,29.01
2018-09-09T11:00:35.099Z,29.16
2018-09-09T11:01:35.035Z,28.64
2018-09-09T11:03:28.386Z,28.56
2018-09-09T11:04:28.355Z,28.57
2018-09-09T11:06:21.724Z,28.75
2018-09-09T11:07:21.663Z,29.08
2018-09-09T11:09:15.011Z,28.70
2018-09-09T11:10:14.977Z,28.93
2018-09-09T11:12:07.826Z,29.31
2018-09-09T11:13:07.819Z,29.78
2018-09-09T11:15:01.111Z,29.97
2018-09-09T11:16:01.081Z,30.31
2018-09-09T11:17:54.455Z,29.78
2018-09-09T11:18:54.409Z,29.65
2018-09-09T11:20:47.765Z,30.10
2018-09-09T11:21:47.720Z,30.19
2018-09-09T11:23:41.074Z,29.97
2018-09-09T11:24:41.075Z,29.26
2018-09-09T11:26:34.380Z,29.63
2018-09-09T11:27:34.355Z,30.03
2018-09-09T11:29:27.676Z,29.32
2018-09-09T11:30:27.672Z,29.49
2018-09-09T11:32:21.012Z,29.84
2018-09-09T11:33:20.978Z,30.15
2018-09-09T11:35:14.309Z,30.57
2018-09-09T11:36:14.283Z,31.06
2018-09-09T11:38:07.632Z,31.52
2018-09-09T11:39:07.574Z,31.77
2018-09-09T11:41:00.909Z,31.76
2018-09-09T11:42:00.885Z,31.80
2018-09-09T11:43:54.256Z,32.40
2018-09-09T11:44:54.223Z,32.49
2018-09-09T11:46:47.547Z,32.38
2018-09-09T11:47:47.536Z,32.49
2018-09-09T11:49:41.874Z,31.65
2018-09-09T11:50:41.848Z,32.19
2018-09-09T11:52:36.222Z,32.49
2018-09-09T11:53:36.166Z,32.53
2018-09-09T11:55:30.626Z,32.15
2018-09-09T11:56:29.497Z,32.52
2018-09-09T11:58:22.831Z,32.89
2018-09-09T11:59:22.796Z,32.82
2018-09-09T12:01:16.139Z,32.26
2018-09-09T12:02:16.099Z,32.30
2018-09-09T12:04:09.462Z,33.08
2018-09-09T12:05:09.416Z,32.74
2018-09-09T12:07:03.742Z,33.24
2018-09-09T12:08:03.735Z,33.39
2018-09-09T12:09:57.069Z,33.04
2018-09-09T12:10:57.037Z,33.24
2018-09-09T12:12:50.376Z,33.73
2018-09-09T12:13:50.470Z,33.67
2018-09-09T12:15:43.692Z,33.89
2018-09-09T12:16:43.683Z,34.05
2018-09-09T12:18:37.008Z,33.95
2018-09-09T12:19:36.978Z,33.87
2018-09-09T12:21:30.299Z,33.40
2018-09-09T12:22:30.279Z,33.27
2018-09-09T12:24:23.626Z,33.45
2018-09-09T12:25:23.613Z,33.24
2018-09-09T12:27:17.949Z,33.02
2018-09-09T12:28:17.917Z,32.45
2018-09-09T12:30:11.257Z,32.18
2018-09-09T12:31:11.239Z,32.23
2018-09-09T12:33:04.578Z,31.69
2018-09-09T12:34:04.545Z,32.00
2018-09-09T12:35:57.894Z,31.46
2018-09-09T12:36:57.854Z,31.37
2018-09-09T12:38:51.198Z,31.24
2018-09-09T12:39:51.158Z,30.78
2018-09-09T12:41:44.495Z,30.81
2018-09-09T12:42:44.470Z,30.88
2018-09-09T12:44:37.819Z,30.73
2018-09-09T12:45:37.774Z,30.48
2018-09-09T12:47:31.099Z,30.25
2018-09-09T12:48:31.089Z,30.47
2018-09-09T12:50:24.416Z,30.80
2018-09-09T12:51:24.389Z,30.94
2018-09-09T12:53:17.715Z,31.28
2018-09-09T12:54:17.699Z,31.29
2018-09-09T12:56:11.025Z,30.78
2018-09-09T12:57:11.005Z,31.06
2018-09-09T12:59:04.323Z,31.18
2018-09-09T13:00:04.384Z,30.84
2018-09-09T13:01:57.680Z,30.30
2018-09-09T13:02:57.635Z,30.16
2018-09-09T13:04:50.970Z,30.37
2018-09-09T13:05:50.953Z,30.35
2018-09-09T13:07:44.289Z,30.25
2018-09-09T13:08:44.258Z,30.27
2018-09-09T13:10:37.600Z,30.24
2018-09-09T13:11:37.560Z,30.16
2018-09-09T13:13:30.886Z,30.05
2018-09-09T13:14:30.866Z,29.93
2018-09-09T13:16:24.200Z,29.56
2018-09-09T13:17:24.170Z,29.34
2018-09-09T13:19:17.531Z,29.01
2018-09-09T13:20:17.495Z,28.91
2018-09-09T13:22:10.860Z,28.85
2018-09-09T13:23:10.805Z,28.76
2018-09-09T13:25:04.175Z,28.98
2018-09-09T13:26:04.101Z,29.23
2018-09-09T13:27:57.434Z,29.72
2018-09-09T13:28:57.414Z,29.66
2018-09-09T13:30:50.791Z,29.60
2018-09-09T13:31:50.747Z,29.71
2018-09-09T13:33:44.095Z,29.93
2018-09-09T13:34:44.087Z,29.93
2018-09-09T13:36:37.387Z,30.18
2018-09-09T13:37:37.359Z,30.50
2018-09-09T13:39:30.692Z,30.39
2018-09-09T13:40:30.685Z,30.46
2018-09-09T13:42:24.986Z,29.75
2018-09-09T13:43:24.948Z,29.57
2018-09-09T13:45:18.296Z,29.50
2018-09-09T13:46:18.264Z,29.57
2018-09-09T13:48:11.707Z,29.36
2018-09-09T13:49:11.590Z,29.36
2018-09-09T13:51:04.921Z,29.81
2018-09-09T13:52:04.883Z,30.09
2018-09-09T13:53:58.228Z,30.48
2018-09-09T13:54:58.236Z,30.63
2018-09-09T13:56:51.538Z,30.75
2018-09-09T13:57:51.525Z,30.91
2018-09-09T13:59:44.865Z,30.97
2018-09-09T14:00:44.812Z,31.06
2018-09-09T14:02:38.146Z,31.20
2018-09-09T14:03:38.165Z,31.33
2018-09-09T14:05:31.471Z,31.27
2018-09-09T14:06:31.444Z,30.96
2018-09-09T14:08:24.792Z,31.27
2018-09-09T14:09:24.784Z,31.55
2018-09-09T14:11:18.102Z,31.78
2018-09-09T14:12:18.086Z,32.08
2018-09-09T14:14:11.459Z,32.19
2018-09-09T14:15:11.438Z,31.96
2018-09-09T14:17:04.857Z,31.51
2018-09-09T14:18:04.728Z,31.44
2018-09-09T14:19:58.069Z,31.66
2018-09-09T14:20:58.077Z,31.80
2018-09-09T14:22:51.349Z,32.12
2018-09-09T14:23:51.332Z,32.14
2018-09-09T14:25:44.672Z,32.14
2018-09-09T14:26:44.633Z,32.11
2018-09-09T14:28:37.998Z,31.65
2018-09-09T14:29:37.962Z,31.90
2018-09-09T14:31:31.289Z,32.09
2018-09-09T14:32:31.258Z,32.12
2018-09-09T14:34:24.679Z,32.11
2018-09-09T14:35:24.567Z,32.11
2018-09-09T14:37:17.904Z,32.12
2018-09-09T14:38:17.869Z,32.16
2018-09-09T14:40:11.228Z,32.09
2018-09-09T14:41:11.185Z,32.16
2018-09-09T14:43:04.523Z,32.31
2018-09-09T14:44:04.494Z,32.23
2018-09-09T14:45:57.907Z,32.12
2018-09-09T14:46:57.819Z,32.07
2018-09-09T14:48:51.170Z,31.69
2018-09-09T14:49:51.129Z,31.09
2018-09-09T14:51:44.486Z,29.86
2018-09-09T14:52:44.443Z,30.08
2018-09-09T14:54:37.768Z,30.02
2018-09-09T14:55:37.747Z,30.18
2018-09-09T14:57:31.083Z,30.21
2018-09-09T14:58:31.028Z,29.98
2018-09-09T15:00:24.453Z,29.88
2018-09-09T15:01:24.368Z,29.73
2018-09-09T15:03:17.685Z,29.90
2018-09-09T15:04:17.673Z,29.97
2018-09-09T15:06:11.005Z,30.21
2018-09-09T15:07:10.969Z,30.27
2018-09-09T15:09:04.309Z,30.05
2018-09-09T15:10:04.270Z,29.78
2018-09-09T15:11:57.622Z,29.49
2018-09-09T15:12:57.594Z,29.31
2018-09-09T15:14:50.894Z,29.22
2018-09-09T15:15:50.886Z,29.10
2018-09-09T15:17:44.246Z,28.79
2018-09-09T15:18:44.180Z,28.76
2018-09-09T15:20:37.623Z,28.66
2018-09-09T15:21:37.474Z,28.76
2018-09-09T15:23:31.691Z,28.88
2018-09-09T15:24:31.710Z,28.76
2018-09-09T15:26:26.675Z,28.66
2018-09-09T15:27:24.957Z,28.79
2018-09-09T15:29:18.273Z,28.69
2018-09-09T15:30:18.240Z,28.69
2018-09-09T15:32:11.597Z,28.59
2018-09-09T15:33:11.539Z,28.52
2018-09-09T15:35:04.957Z,28.47
2018-09-09T15:36:04.912Z,28.45
2018-09-09T15:37:58.256Z,28.45
2018-09-09T15:38:58.197Z,28.49
2018-09-09T15:40:51.520Z,28.27
2018-09-09T15:41:51.491Z,28.30
2018-09-09T15:43:44.839Z,28.05
2018-09-09T15:44:44.801Z,28.04
2018-09-09T15:46:38.141Z,28.02
2018-09-09T15:47:38.111Z,28.02
2018-09-09T15:49:31.444Z,28.00
2018-09-09T15:50:31.396Z,27.95
2018-09-09T15:52:24.903Z,27.90
2018-09-09T15:53:24.720Z,27.92
2018-09-09T15:55:18.096Z,27.96
2018-09-09T15:56:18.044Z,28.00
2018-09-09T15:58:11.373Z,27.93
2018-09-09T15:59:11.337Z,27.92
2018-09-09T16:01:04.677Z,27.77
2018-09-09T16:02:04.641Z,27.83
2018-09-09T16:03:57.976Z,27.83
2018-09-09T16:04:57.927Z,27.78
2018-09-09T16:06:51.252Z,27.67
2018-09-09T16:07:51.222Z,27.52
2018-09-09T16:09:44.558Z,27.64
2018-09-09T16:10:44.528Z,27.47
2018-09-09T16:12:37.833Z,27.37
2018-09-09T16:13:37.831Z,27.59
2018-09-09T16:15:31.141Z,27.67
2018-09-09T16:16:31.107Z,27.70
2018-09-09T16:18:24.426Z,27.64
2018-09-09T16:19:24.416Z,27.48
2018-09-09T16:21:17.744Z,27.33
2018-09-09T16:22:17.702Z,27.36
2018-09-09T16:24:11.024Z,27.26
2018-09-09T16:25:11.003Z,27.27
2018-09-09T16:27:04.399Z,27.27
2018-09-09T16:28:04.308Z,27.25
2018-09-09T16:29:57.635Z,27.33
2018-09-09T16:30:57.588Z,27.44
2018-09-09T16:32:50.928Z,27.39
2018-09-09T16:33:50.877Z,27.40
2018-09-09T16:35:44.237Z,27.35
2018-09-09T16:36:44.191Z,27.42
2018-09-09T16:38:37.526Z,27.48
2018-09-09T16:39:37.553Z,27.59
2018-09-09T16:41:30.843Z,27.51
2018-09-09T16:42:30.787Z,27.58
2018-09-09T16:44:24.109Z,27.65
2018-09-09T16:45:24.067Z,27.49
2018-09-09T16:47:17.408Z,27.40
2018-09-09T16:48:17.362Z,27.18
2018-09-09T16:50:10.723Z,27.11
2018-09-09T16:51:10.658Z,27.14
2018-09-09T16:53:03.999Z,26.99
2018-09-09T16:54:04.013Z,26.96
2018-09-09T16:55:57.307Z,26.89
2018-09-09T16:56:57.280Z,26.88
2018-09-09T16:58:50.634Z,26.84
2018-09-09T16:59:50.569Z,26.78
2018-09-09T17:01:43.890Z,26.63
2018-09-09T17:02:43.869Z,26.73
2018-09-09T17:04:37.200Z,26.59
2018-09-09T17:05:37.152Z,26.55
2018-09-09T17:07:30.492Z,26.45
2018-09-09T17:08:30.443Z,26.44
2018-09-09T17:10:23.778Z,26.40
2018-09-09T17:11:23.763Z,26.37
2018-09-09T17:13:17.074Z,26.37
2018-09-09T17:14:17.049Z,26.33
2018-09-09T17:16:10.344Z,26.26
2018-09-09T17:17:10.344Z,26.28
2018-09-09T17:19:03.685Z,26.18
2018-09-09T17:20:03.799Z,26.16
2018-09-09T17:21:56.985Z,26.22
2018-09-09T17:22:56.935Z,26.06
2018-09-09T17:24:50.230Z,26.05
2018-09-09T17:25:50.204Z,26.05
2018-09-09T17:27:43.559Z,26.00
2018-09-09T17:28:43.510Z,25.95
2018-09-09T17:30:36.900Z,25.90
2018-09-09T17:31:36.826Z,25.90
2018-09-09T17:33:30.169Z,25.81
2018-09-09T17:34:30.129Z,25.80
2018-09-09T17:36:23.451Z,25.77
2018-09-09T17:37:23.424Z,25.77
2018-09-09T17:39:16.799Z,25.62
2018-09-09T17:40:16.734Z,25.66
2018-09-09T17:42:10.042Z,25.44
2018-09-09T17:43:10.010Z,25.43
2018-09-09T17:45:04.560Z,25.28
2018-09-09T17:46:07.857Z,25.31
2018-09-09T17:47:58.016Z,25.13
2018-09-09T17:48:57.821Z,25.16
2018-09-09T17:50:58.765Z,25.11
2018-09-09T17:51:51.090Z,25.03
2018-09-09T17:53:45.435Z,24.95
2018-09-09T17:54:45.377Z,24.91
2018-09-09T17:56:39.432Z,24.84
2018-09-09T17:57:38.667Z,24.77
2018-09-09T17:59:33.021Z,24.60
2018-09-09T18:00:32.966Z,24.76
2018-09-09T18:02:26.271Z,24.51
2018-09-09T18:03:26.447Z,24.55
2018-09-09T18:05:19.698Z,24.38
2018-09-09T18:06:19.635Z,24.36
2018-09-09T18:08:12.863Z,24.26
2018-09-09T18:09:12.833Z,24.18
2018-09-09T18:11:06.213Z,24.10
2018-09-09T18:12:06.120Z,24.06
2018-09-09T18:14:00.450Z,23.98
2018-09-09T18:15:00.436Z,23.98
2018-09-09T18:16:53.944Z,23.87
2018-09-09T18:17:53.737Z,23.84
2018-09-09T18:19:48.208Z,23.76
2018-09-09T18:20:48.026Z,23.71
2018-09-09T18:22:41.225Z,23.63
2018-09-09T18:23:41.152Z,23.61
2018-09-09T18:25:34.478Z,23.51
2018-09-09T18:26:34.451Z,23.51
2018-09-09T18:28:28.401Z,23.40
2018-09-09T18:29:27.781Z,23.34
2018-09-09T18:31:21.073Z,23.27
2018-09-09T18:32:21.059Z,23.18
2018-09-09T18:34:14.414Z,23.18
2018-09-09T18:35:14.378Z,23.20